Enter the Airport ICAO Code

Search by Airport or City

Current Weather

SKBO | El Dorado International Airport

Bogotá, Colombia

Last Update 25 Minutes Ago

Sky with Few Clouds

Temperature of 12 ºC

Light to Moderate Winds from NorthEast

Temperature

12 ºC

Dew Point Temperature

11 ºC

Relative Humidity

93.63 %

Wind Direction

NorthEast (060º, Without Significant Variations)

Wind Velocity

9 km/h (05 kt)

Gusts

None

Visibility

Greater than 10 Kilometers

Sea Level Pressure

30.37 inHg (Inches of Mercury)

Layers of Clouds

5% to 30% of Sky Covered from 610 mts (2000 ft) Above Ground Level.

METAR SKBO 131200Z 06005KT 9999 FEW020 12/11 A3037 NOSIG

Weather Forecast

SKBO | El Dorado International Airport

Bogotá, Colombia

Forecast valid for the next 24 Hours

From now on it is expected:

Mostly Cloudy Sky

Light Winds from North

In 4 to 6 hours it is expected the begining of:

Partly Cloudy Sky

Light to Moderate Winds from West

In 8 hours it is expected the begining of 3 hours with intermittent periods of:

Drizzle

In 13 to 15 hours it is expected the begining of:

Light Winds from NorthEast

Maximum Temperature

No Data

Minimum Temperature

No Data

TAF SKBO 131030Z 1312/1412 02004KT 9999 FEW020 BKN090 BECMG 1316/1318 26008KT SCT017 PROB40 TEMPO 1320/1323 DZ SCT015TCU BECMG 1401/1403 03004KT TX19/1318Z TN10/1410Z